sensor_id;sensor_type;location;lat;lon;timestamp;P1;durP1;ratioP1;P2;durP2;ratioP2
3085;SDS011;52812;48.960;9.108;2022-09-21T00:03:39;8.33;;;5.90;;
3085;SDS011;52812;48.960;9.108;2022-09-21T00:06:07;9.70;;;6.90;;
3085;SDS011;52812;48.960;9.108;2022-09-21T00:08:34;8.73;;;6.80;;
3085;SDS011;52812;48.960;9.108;2022-09-21T00:11:00;16.23;;;11.47;;
3085;SDS011;52812;48.960;9.108;2022-09-21T00:13:28;86.03;;;47.17;;
3085;SDS011;52812;48.960;9.108;2022-09-21T00:15:57;21.53;;;15.93;;
3085;SDS011;52812;48.960;9.108;2022-09-21T00:18:23;14.50;;;8.57;;
3085;SDS011;52812;48.960;9.108;2022-09-21T00:20:49;10.37;;;7.27;;
3085;SDS011;52812;48.960;9.108;2022-09-21T00:23:16;10.40;;;7.03;;
3085;SDS011;52812;48.960;9.108;2022-09-21T00:25:42;7.87;;;6.27;;
3085;SDS011;52812;48.960;9.108;2022-09-21T00:28:08;8.27;;;6.23;;
3085;SDS011;52812;48.960;9.108;2022-09-21T00:30:33;6.63;;;5.43;;
3085;SDS011;52812;48.960;9.108;2022-09-21T00:32:59;8.90;;;7.40;;
3085;SDS011;52812;48.960;9.108;2022-09-21T00:35:24;11.90;;;6.30;;
3085;SDS011;52812;48.960;9.108;2022-09-21T00:37:50;9.20;;;6.40;;
3085;SDS011;52812;48.960;9.108;2022-09-21T00:40:15;9.17;;;6.57;;
3085;SDS011;52812;48.960;9.108;2022-09-21T00:42:41;11.17;;;6.73;;
3085;SDS011;52812;48.960;9.108;2022-09-21T00:45:09;10.27;;;6.00;;
3085;SDS011;52812;48.960;9.108;2022-09-21T00:47:45;8.80;;;6.20;;
3085;SDS011;52812;48.960;9.108;2022-09-21T00:50:15;7.50;;;5.67;;
3085;SDS011;52812;48.960;9.108;2022-09-21T00:52:46;8.90;;;5.77;;
3085;SDS011;52812;48.960;9.108;2022-09-21T00:55:27;8.20;;;4.93;;
3085;SDS011;52812;48.960;9.108;2022-09-21T00:57:58;10.90;;;6.17;;
3085;SDS011;52812;48.960;9.108;2022-09-21T01:00:26;8.13;;;6.30;;
3085;SDS011;52812;48.960;9.108;2022-09-21T01:02:52;9.40;;;5.80;;
3085;SDS011;52812;48.960;9.108;2022-09-21T01:05:25;8.20;;;5.50;;
3085;SDS011;52812;48.960;9.108;2022-09-21T01:07:51;6.80;;;5.33;;
3085;SDS011;52812;48.960;9.108;2022-09-21T01:10:17;6.40;;;5.20;;
3085;SDS011;52812;48.960;9.108;2022-09-21T01:18:20;7.40;;;5.63;;
3085;SDS011;52812;48.960;9.108;2022-09-21T01:23:58;7.77;;;5.23;;
3085;SDS011;52812;48.960;9.108;2022-09-21T01:27:12;7.70;;;5.80;;
3085;SDS011;52812;48.960;9.108;2022-09-21T01:32:13;11.87;;;6.03;;
3085;SDS011;52812;48.960;9.108;2022-09-21T01:37:36;6.40;;;4.90;;
3085;SDS011;52812;48.960;9.108;2022-09-21T01:40:11;7.93;;;5.30;;
3085;SDS011;52812;48.960;9.108;2022-09-21T01:42:43;8.23;;;5.40;;
3085;SDS011;52812;48.960;9.108;2022-09-21T01:45:12;8.20;;;6.00;;
3085;SDS011;52812;48.960;9.108;2022-09-21T01:47:41;6.53;;;4.70;;
3085;SDS011;52812;48.960;9.108;2022-09-21T01:50:11;8.17;;;5.77;;
3085;SDS011;52812;48.960;9.108;2022-09-21T01:55:11;9.00;;;6.20;;
3085;SDS011;52812;48.960;9.108;2022-09-21T02:00:38;7.17;;;5.70;;
3085;SDS011;52812;48.960;9.108;2022-09-21T02:03:24;8.33;;;5.43;;
3085;SDS011;52812;48.960;9.108;2022-09-21T02:06:03;8.87;;;6.47;;
3085;SDS011;52812;48.960;9.108;2022-09-21T02:08:30;10.87;;;6.50;;
3085;SDS011;52812;48.960;9.108;2022-09-21T02:10:57;9.70;;;6.30;;
3085;SDS011;52812;48.960;9.108;2022-09-21T02:13:27;9.00;;;6.40;;
3085;SDS011;52812;48.960;9.108;2022-09-21T02:18:46;8.57;;;5.73;;
3085;SDS011;52812;48.960;9.108;2022-09-21T02:21:24;5.80;;;4.90;;
3085;SDS011;52812;48.960;9.108;2022-09-21T02:23:55;7.30;;;5.10;;
3085;SDS011;52812;48.960;9.108;2022-09-21T02:26:47;6.80;;;4.90;;
3085;SDS011;52812;48.960;9.108;2022-09-21T02:29:20;7.00;;;5.67;;
3085;SDS011;52812;48.960;9.108;2022-09-21T02:32:08;8.50;;;5.73;;
3085;SDS011;52812;48.960;9.108;2022-09-21T02:37:25;9.27;;;5.50;;
3085;SDS011;52812;48.960;9.108;2022-09-21T02:40:00;6.57;;;5.87;;
3085;SDS011;52812;48.960;9.108;2022-09-21T02:42:33;11.80;;;5.97;;
3085;SDS011;52812;48.960;9.108;2022-09-21T02:45:18;9.03;;;6.20;;
3085;SDS011;52812;48.960;9.108;2022-09-21T02:47:53;8.80;;;5.73;;
3085;SDS011;52812;48.960;9.108;2022-09-21T02:50:29;7.93;;;5.70;;
3085;SDS011;52812;48.960;9.108;2022-09-21T02:53:00;8.50;;;5.10;;
3085;SDS011;52812;48.960;9.108;2022-09-21T02:55:29;7.77;;;5.87;;
3085;SDS011;52812;48.960;9.108;2022-09-21T02:57:56;9.20;;;6.70;;
3085;SDS011;52812;48.960;9.108;2022-09-21T03:00:24;10.93;;;7.23;;
3085;SDS011;52812;48.960;9.108;2022-09-21T03:02:50;9.43;;;6.07;;
3085;SDS011;52812;48.960;9.108;2022-09-21T03:05:15;9.37;;;6.00;;
3085;SDS011;52812;48.960;9.108;2022-09-21T03:07:41;8.17;;;6.00;;
3085;SDS011;52812;48.960;9.108;2022-09-21T03:10:07;10.00;;;5.80;;
3085;SDS011;52812;48.960;9.108;2022-09-21T03:12:33;8.80;;;6.40;;
3085;SDS011;52812;48.960;9.108;2022-09-21T03:14:58;11.90;;;6.20;;
3085;SDS011;52812;48.960;9.108;2022-09-21T03:17:24;7.70;;;5.80;;
3085;SDS011;52812;48.960;9.108;2022-09-21T03:19:51;8.37;;;6.17;;
3085;SDS011;52812;48.960;9.108;2022-09-21T03:22:19;10.93;;;6.87;;
3085;SDS011;52812;48.960;9.108;2022-09-21T03:24:48;10.00;;;6.27;;
3085;SDS011;52812;48.960;9.108;2022-09-21T03:27:15;9.50;;;6.63;;
3085;SDS011;52812;48.960;9.108;2022-09-21T03:29:42;9.03;;;6.67;;
3085;SDS011;52812;48.960;9.108;2022-09-21T03:32:08;9.97;;;6.87;;
3085;SDS011;52812;48.960;9.108;2022-09-21T03:34:34;9.40;;;6.80;;
3085;SDS011;52812;48.960;9.108;2022-09-21T03:37:00;10.53;;;7.33;;
3085;SDS011;52812;48.960;9.108;2022-09-21T03:39:26;8.83;;;6.10;;
3085;SDS011;52812;48.960;9.108;2022-09-21T03:41:52;10.63;;;6.53;;
3085;SDS011;52812;48.960;9.108;2022-09-21T03:44:20;15.43;;;6.80;;
3085;SDS011;52812;48.960;9.108;2022-09-21T03:46:47;14.43;;;6.83;;
3085;SDS011;52812;48.960;9.108;2022-09-21T03:49:12;10.93;;;6.67;;
3085;SDS011;52812;48.960;9.108;2022-09-21T03:51:38;8.60;;;6.87;;
3085;SDS011;52812;48.960;9.108;2022-09-21T03:54:03;9.53;;;6.30;;
3085;SDS011;52812;48.960;9.108;2022-09-21T03:56:29;9.00;;;6.30;;
3085;SDS011;52812;48.960;9.108;2022-09-21T04:01:25;9.03;;;6.07;;
3085;SDS011;52812;48.960;9.108;2022-09-21T04:03:51;14.40;;;8.37;;
3085;SDS011;52812;48.960;9.108;2022-09-21T04:06:16;13.17;;;8.80;;
3085;SDS011;52812;48.960;9.108;2022-09-21T04:08:42;12.33;;;7.87;;
3085;SDS011;52812;48.960;9.108;2022-09-21T04:11:12;9.53;;;7.50;;
3085;SDS011;52812;48.960;9.108;2022-09-21T04:13:40;9.67;;;6.03;;
3085;SDS011;52812;48.960;9.108;2022-09-21T04:16:06;9.87;;;6.10;;
3085;SDS011;52812;48.960;9.108;2022-09-21T04:18:33;9.67;;;6.50;;
3085;SDS011;52812;48.960;9.108;2022-09-21T04:20:59;8.33;;;6.40;;
3085;SDS011;52812;48.960;9.108;2022-09-21T04:23:25;8.93;;;5.87;;
3085;SDS011;52812;48.960;9.108;2022-09-21T04:25:52;7.83;;;6.00;;
3085;SDS011;52812;48.960;9.108;2022-09-21T04:28:18;9.43;;;6.27;;
3085;SDS011;52812;48.960;9.108;2022-09-21T04:30:44;13.17;;;6.37;;
3085;SDS011;52812;48.960;9.108;2022-09-21T04:33:10;8.83;;;6.87;;
3085;SDS011;52812;48.960;9.108;2022-09-21T04:35:35;12.57;;;6.90;;
3085;SDS011;52812;48.960;9.108;2022-09-21T04:38:01;14.07;;;8.50;;
3085;SDS011;52812;48.960;9.108;2022-09-21T04:40:27;9.73;;;6.87;;
3085;SDS011;52812;48.960;9.108;2022-09-21T04:42:53;12.97;;;6.03;;
3085;SDS011;52812;48.960;9.108;2022-09-21T04:45:19;9.80;;;6.67;;
3085;SDS011;52812;48.960;9.108;2022-09-21T04:47:46;10.60;;;7.40;;
3085;SDS011;52812;48.960;9.108;2022-09-21T04:50:12;12.63;;;7.50;;
3085;SDS011;52812;48.960;9.108;2022-09-21T04:52:38;9.00;;;6.47;;
3085;SDS011;52812;48.960;9.108;2022-09-21T04:55:04;9.50;;;7.10;;
3085;SDS011;52812;48.960;9.108;2022-09-21T04:57:31;9.10;;;6.97;;
3085;SDS011;52812;48.960;9.108;2022-09-21T04:59:56;14.70;;;8.80;;
3085;SDS011;52812;48.960;9.108;2022-09-21T05:02:22;10.03;;;7.80;;
3085;SDS011;52812;48.960;9.108;2022-09-21T05:04:48;12.40;;;8.30;;
3085;SDS011;52812;48.960;9.108;2022-09-21T05:07:14;14.87;;;9.73;;
3085;SDS011;52812;48.960;9.108;2022-09-21T05:09:40;14.97;;;9.50;;
3085;SDS011;52812;48.960;9.108;2022-09-21T05:12:24;12.73;;;8.13;;
3085;SDS011;52812;48.960;9.108;2022-09-21T05:14:49;11.80;;;8.20;;
3085;SDS011;52812;48.960;9.108;2022-09-21T05:17:15;11.30;;;7.60;;
3085;SDS011;52812;48.960;9.108;2022-09-21T05:19:41;11.30;;;7.40;;
3085;SDS011;52812;48.960;9.108;2022-09-21T05:22:07;9.30;;;6.40;;
3085;SDS011;52812;48.960;9.108;2022-09-21T05:24:32;8.17;;;6.43;;
3085;SDS011;52812;48.960;9.108;2022-09-21T05:26:58;13.57;;;6.90;;
3085;SDS011;52812;48.960;9.108;2022-09-21T05:29:24;11.37;;;7.30;;
3085;SDS011;52812;48.960;9.108;2022-09-21T05:31:50;10.23;;;6.77;;
3085;SDS011;52812;48.960;9.108;2022-09-21T05:35:06;9.93;;;6.40;;
3085;SDS011;52812;48.960;9.108;2022-09-21T05:37:42;12.63;;;6.80;;
3085;SDS011;52812;48.960;9.108;2022-09-21T05:40:10;13.03;;;6.93;;
3085;SDS011;52812;48.960;9.108;2022-09-21T05:42:36;10.93;;;7.47;;
3085;SDS011;52812;48.960;9.108;2022-09-21T05:45:03;12.20;;;7.50;;
3085;SDS011;52812;48.960;9.108;2022-09-21T05:50:24;9.70;;;7.13;;
3085;SDS011;52812;48.960;9.108;2022-09-21T05:55:56;12.07;;;6.93;;
3085;SDS011;52812;48.960;9.108;2022-09-21T05:58:39;11.30;;;6.50;;
3085;SDS011;52812;48.960;9.108;2022-09-21T06:04:27;9.90;;;5.50;;
3085;SDS011;52812;48.960;9.108;2022-09-21T06:06:53;7.63;;;5.60;;
3085;SDS011;52812;48.960;9.108;2022-09-21T06:09:18;8.33;;;5.77;;
3085;SDS011;52812;48.960;9.108;2022-09-21T06:11:46;9.43;;;5.77;;
3085;SDS011;52812;48.960;9.108;2022-09-21T06:14:12;7.90;;;6.43;;
3085;SDS011;52812;48.960;9.108;2022-09-21T06:16:41;7.93;;;5.33;;
3085;SDS011;52812;48.960;9.108;2022-09-21T06:19:11;8.00;;;5.90;;
3085;SDS011;52812;48.960;9.108;2022-09-21T06:21:37;7.73;;;5.90;;
3085;SDS011;52812;48.960;9.108;2022-09-21T06:24:02;10.40;;;6.53;;
3085;SDS011;52812;48.960;9.108;2022-09-21T06:26:28;7.47;;;6.17;;
3085;SDS011;52812;48.960;9.108;2022-09-21T06:28:53;7.10;;;6.13;;
3085;SDS011;52812;48.960;9.108;2022-09-21T06:31:19;9.13;;;6.27;;
3085;SDS011;52812;48.960;9.108;2022-09-21T06:33:45;7.90;;;6.17;;
3085;SDS011;52812;48.960;9.108;2022-09-21T06:36:10;9.43;;;6.50;;
3085;SDS011;52812;48.960;9.108;2022-09-21T06:38:36;8.93;;;6.60;;
3085;SDS011;52812;48.960;9.108;2022-09-21T06:41:02;11.13;;;6.50;;
3085;SDS011;52812;48.960;9.108;2022-09-21T06:43:29;12.10;;;6.87;;
3085;SDS011;52812;48.960;9.108;2022-09-21T06:45:56;7.30;;;5.77;;
3085;SDS011;52812;48.960;9.108;2022-09-21T06:48:24;8.60;;;6.20;;
3085;SDS011;52812;48.960;9.108;2022-09-21T06:50:54;7.20;;;6.00;;
3085;SDS011;52812;48.960;9.108;2022-09-21T06:53:22;7.73;;;6.10;;
3085;SDS011;52812;48.960;9.108;2022-09-21T06:55:47;10.73;;;6.43;;
3085;SDS011;52812;48.960;9.108;2022-09-21T06:58:13;8.87;;;6.20;;
3085;SDS011;52812;48.960;9.108;2022-09-21T07:00:38;11.20;;;6.83;;
3085;SDS011;52812;48.960;9.108;2022-09-21T07:03:04;11.27;;;7.60;;
3085;SDS011;52812;48.960;9.108;2022-09-21T07:05:30;9.50;;;6.93;;
3085;SDS011;52812;48.960;9.108;2022-09-21T07:07:57;12.50;;;6.90;;
3085;SDS011;52812;48.960;9.108;2022-09-21T07:10:23;7.53;;;6.37;;
3085;SDS011;52812;48.960;9.108;2022-09-21T07:12:49;14.03;;;7.43;;
3085;SDS011;52812;48.960;9.108;2022-09-21T07:15:16;11.53;;;6.93;;
3085;SDS011;52812;48.960;9.108;2022-09-21T07:17:43;12.27;;;6.40;;
3085;SDS011;52812;48.960;9.108;2022-09-21T07:20:09;12.10;;;6.73;;
3085;SDS011;52812;48.960;9.108;2022-09-21T07:22:36;10.20;;;7.00;;
3085;SDS011;52812;48.960;9.108;2022-09-21T07:25:02;11.00;;;7.33;;
3085;SDS011;52812;48.960;9.108;2022-09-21T07:27:29;9.20;;;6.77;;
3085;SDS011;52812;48.960;9.108;2022-09-21T07:29:56;11.17;;;6.93;;
3085;SDS011;52812;48.960;9.108;2022-09-21T07:32:21;8.43;;;7.20;;
3085;SDS011;52812;48.960;9.108;2022-09-21T07:34:47;10.60;;;6.93;;
3085;SDS011;52812;48.960;9.108;2022-09-21T07:37:13;11.60;;;6.30;;
3085;SDS011;52812;48.960;9.108;2022-09-21T07:39:39;10.13;;;7.80;;
3085;SDS011;52812;48.960;9.108;2022-09-21T07:42:05;7.90;;;6.40;;
3085;SDS011;52812;48.960;9.108;2022-09-21T07:44:31;9.83;;;6.67;;
3085;SDS011;52812;48.960;9.108;2022-09-21T07:46:57;7.93;;;6.30;;
3085;SDS011;52812;48.960;9.108;2022-09-21T07:49:22;6.47;;;5.70;;
3085;SDS011;52812;48.960;9.108;2022-09-21T07:51:48;7.50;;;5.07;;
3085;SDS011;52812;48.960;9.108;2022-09-21T07:54:14;7.33;;;5.70;;
3085;SDS011;52812;48.960;9.108;2022-09-21T07:56:40;7.70;;;6.07;;
3085;SDS011;52812;48.960;9.108;2022-09-21T07:59:06;7.97;;;6.07;;
3085;SDS011;52812;48.960;9.108;2022-09-21T08:01:33;9.00;;;6.30;;
3085;SDS011;52812;48.960;9.108;2022-09-21T08:04:01;8.60;;;6.10;;
3085;SDS011;52812;48.960;9.108;2022-09-21T08:06:28;9.57;;;5.77;;
3085;SDS011;52812;48.960;9.108;2022-09-21T08:08:56;8.90;;;6.30;;
3085;SDS011;52812;48.960;9.108;2022-09-21T08:11:26;10.63;;;6.70;;
3085;SDS011;52812;48.960;9.108;2022-09-21T08:13:54;8.70;;;5.90;;
3085;SDS011;52812;48.960;9.108;2022-09-21T08:16:22;12.20;;;6.60;;
3085;SDS011;52812;48.960;9.108;2022-09-21T08:18:47;9.53;;;6.93;;
3085;SDS011;52812;48.960;9.108;2022-09-21T08:21:14;9.47;;;6.40;;
3085;SDS011;52812;48.960;9.108;2022-09-21T08:23:39;8.70;;;5.63;;
3085;SDS011;52812;48.960;9.108;2022-09-21T08:26:06;10.53;;;5.60;;
3085;SDS011;52812;48.960;9.108;2022-09-21T08:28:33;6.37;;;5.20;;
3085;SDS011;52812;48.960;9.108;2022-09-21T08:31:03;5.80;;;5.00;;
3085;SDS011;52812;48.960;9.108;2022-09-21T08:33:32;7.47;;;5.10;;
3085;SDS011;52812;48.960;9.108;2022-09-21T08:35:58;7.77;;;5.63;;
3085;SDS011;52812;48.960;9.108;2022-09-21T08:38:25;9.73;;;5.10;;
3085;SDS011;52812;48.960;9.108;2022-09-21T08:40:51;10.10;;;5.60;;
3085;SDS011;52812;48.960;9.108;2022-09-21T08:46:02;8.40;;;5.17;;
3085;SDS011;52812;48.960;9.108;2022-09-21T08:48:30;7.87;;;5.37;;
3085;SDS011;52812;48.960;9.108;2022-09-21T08:51:03;9.60;;;5.17;;
3085;SDS011;52812;48.960;9.108;2022-09-21T08:53:33;8.03;;;4.70;;
3085;SDS011;52812;48.960;9.108;2022-09-21T08:56:09;7.87;;;4.80;;
3085;SDS011;52812;48.960;9.108;2022-09-21T08:58:36;7.60;;;4.73;;
3085;SDS011;52812;48.960;9.108;2022-09-21T09:09:28;9.27;;;5.00;;
3085;SDS011;52812;48.960;9.108;2022-09-21T09:12:31;7.70;;;4.27;;
3085;SDS011;52812;48.960;9.108;2022-09-21T09:20:52;4.47;;;3.60;;
3085;SDS011;52812;48.960;9.108;2022-09-21T09:23:21;5.53;;;3.50;;
3085;SDS011;52812;48.960;9.108;2022-09-21T09:26:00;5.73;;;4.00;;
3085;SDS011;52812;48.960;9.108;2022-09-21T09:31:27;5.67;;;3.83;;
3085;SDS011;52812;48.960;9.108;2022-09-21T09:34:12;5.23;;;3.40;;
3085;SDS011;52812;48.960;9.108;2022-09-21T09:36:49;4.90;;;3.00;;
3085;SDS011;52812;48.960;9.108;2022-09-21T09:39:37;3.40;;;2.57;;
3085;SDS011;52812;48.960;9.108;2022-09-21T09:50:37;4.00;;;2.63;;
3085;SDS011;52812;48.960;9.108;2022-09-21T09:53:09;3.93;;;2.20;;
3085;SDS011;52812;48.960;9.108;2022-09-21T09:55:44;3.83;;;2.90;;
3085;SDS011;52812;48.960;9.108;2022-09-21T09:58:23;2.90;;;2.37;;
3085;SDS011;52812;48.960;9.108;2022-09-21T10:01:08;5.60;;;2.50;;
3085;SDS011;52812;48.960;9.108;2022-09-21T10:04:09;3.43;;;2.33;;
3085;SDS011;52812;48.960;9.108;2022-09-21T10:06:36;2.53;;;2.30;;
3085;SDS011;52812;48.960;9.108;2022-09-21T10:09:18;6.50;;;2.70;;
3085;SDS011;52812;48.960;9.108;2022-09-21T10:11:50;5.63;;;2.50;;
3085;SDS011;52812;48.960;9.108;2022-09-21T10:14:21;3.07;;;2.50;;
3085;SDS011;52812;48.960;9.108;2022-09-21T10:16:49;3.47;;;2.80;;
3085;SDS011;52812;48.960;9.108;2022-09-21T10:19:17;4.63;;;2.80;;
3085;SDS011;52812;48.960;9.108;2022-09-21T10:21:46;3.07;;;2.40;;
3085;SDS011;52812;48.960;9.108;2022-09-21T10:24:20;3.20;;;2.37;;
3085;SDS011;52812;48.960;9.108;2022-09-21T10:26:54;3.03;;;2.50;;
3085;SDS011;52812;48.960;9.108;2022-09-21T10:31:55;3.20;;;2.73;;
3085;SDS011;52812;48.960;9.108;2022-09-21T10:34:25;4.20;;;2.73;;
3085;SDS011;52812;48.960;9.108;2022-09-21T10:36:54;3.57;;;2.73;;
3085;SDS011;52812;48.960;9.108;2022-09-21T10:41:53;3.90;;;3.20;;
3085;SDS011;52812;48.960;9.108;2022-09-21T10:44:28;4.53;;;3.40;;
3085;SDS011;52812;48.960;9.108;2022-09-21T10:47:03;3.70;;;3.30;;
3085;SDS011;52812;48.960;9.108;2022-09-21T10:49:52;5.00;;;3.63;;
3085;SDS011;52812;48.960;9.108;2022-09-21T10:52:21;7.27;;;3.70;;
3085;SDS011;52812;48.960;9.108;2022-09-21T10:54:57;4.53;;;3.27;;
3085;SDS011;52812;48.960;9.108;2022-09-21T10:57:23;4.80;;;3.40;;
3085;SDS011;52812;48.960;9.108;2022-09-21T10:59:52;7.50;;;3.33;;
3085;SDS011;52812;48.960;9.108;2022-09-21T11:05:03;7.77;;;3.43;;
3085;SDS011;52812;48.960;9.108;2022-09-21T11:07:36;4.60;;;2.73;;
3085;SDS011;52812;48.960;9.108;2022-09-21T11:13:00;3.50;;;2.97;;
3085;SDS011;52812;48.960;9.108;2022-09-21T11:15:56;5.10;;;2.90;;
3085;SDS011;52812;48.960;9.108;2022-09-21T11:26:33;5.07;;;2.90;;
3085;SDS011;52812;48.960;9.108;2022-09-21T11:29:08;8.73;;;3.57;;
3085;SDS011;52812;48.960;9.108;2022-09-21T11:31:51;6.30;;;3.47;;
3085;SDS011;52812;48.960;9.108;2022-09-21T11:37:35;5.83;;;3.17;;
3085;SDS011;52812;48.960;9.108;2022-09-21T11:48:22;7.10;;;4.97;;
3085;SDS011;52812;48.960;9.108;2022-09-21T12:07:25;3.40;;;1.70;;
3085;SDS011;52812;48.960;9.108;2022-09-21T12:13:09;3.00;;;2.30;;
3085;SDS011;52812;48.960;9.108;2022-09-21T12:15:41;3.63;;;2.30;;
3085;SDS011;52812;48.960;9.108;2022-09-21T12:23:47;3.00;;;2.13;;
3085;SDS011;52812;48.960;9.108;2022-09-21T12:26:22;2.80;;;2.03;;
3085;SDS011;52812;48.960;9.108;2022-09-21T12:28:54;2.77;;;1.43;;
3085;SDS011;52812;48.960;9.108;2022-09-21T12:31:30;1.40;;;1.30;;
3085;SDS011;52812;48.960;9.108;2022-09-21T12:34:20;1.97;;;1.40;;
3085;SDS011;52812;48.960;9.108;2022-09-21T12:37:07;1.40;;;1.30;;
3085;SDS011;52812;48.960;9.108;2022-09-21T12:42:20;1.30;;;1.20;;
3085;SDS011;52812;48.960;9.108;2022-09-21T12:44:52;1.20;;;1.10;;
3085;SDS011;52812;48.960;9.108;2022-09-21T12:47:44;2.30;;;1.40;;
3085;SDS011;52812;48.960;9.108;2022-09-21T12:50:29;1.63;;;1.23;;
3085;SDS011;52812;48.960;9.108;2022-09-21T12:53:03;2.60;;;1.30;;
3085;SDS011;52812;48.960;9.108;2022-09-21T12:55:32;2.90;;;1.30;;
3085;SDS011;52812;48.960;9.108;2022-09-21T13:00:59;1.50;;;1.40;;
3085;SDS011;52812;48.960;9.108;2022-09-21T13:09:26;1.83;;;1.20;;
3085;SDS011;52812;48.960;9.108;2022-09-21T13:11:57;1.40;;;1.30;;
3085;SDS011;52812;48.960;9.108;2022-09-21T13:14:26;1.30;;;1.20;;
3085;SDS011;52812;48.960;9.108;2022-09-21T13:16:55;1.47;;;1.37;;
3085;SDS011;52812;48.960;9.108;2022-09-21T13:19:27;1.50;;;1.40;;
3085;SDS011;52812;48.960;9.108;2022-09-21T13:24:56;3.30;;;1.40;;
3085;SDS011;52812;48.960;9.108;2022-09-21T13:30:32;1.83;;;1.60;;
3085;SDS011;52812;48.960;9.108;2022-09-21T13:32:59;1.63;;;1.50;;
3085;SDS011;52812;48.960;9.108;2022-09-21T13:38:27;2.43;;;1.43;;
3085;SDS011;52812;48.960;9.108;2022-09-21T13:41:02;1.43;;;1.33;;
3085;SDS011;52812;48.960;9.108;2022-09-21T13:43:59;2.33;;;1.40;;
3085;SDS011;52812;48.960;9.108;2022-09-21T13:51:49;3.90;;;1.80;;
3085;SDS011;52812;48.960;9.108;2022-09-21T13:54:19;1.83;;;1.43;;
3085;SDS011;52812;48.960;9.108;2022-09-21T13:56:59;2.20;;;1.73;;
3085;SDS011;52812;48.960;9.108;2022-09-21T13:59:46;2.50;;;1.43;;
3085;SDS011;52812;48.960;9.108;2022-09-21T14:02:24;1.63;;;1.40;;
3085;SDS011;52812;48.960;9.108;2022-09-21T14:04:58;2.33;;;1.50;;
3085;SDS011;52812;48.960;9.108;2022-09-21T14:07:33;2.13;;;1.30;;
3085;SDS011;52812;48.960;9.108;2022-09-21T14:10:02;3.53;;;1.50;;
3085;SDS011;52812;48.960;9.108;2022-09-21T14:12:32;1.70;;;1.47;;
3085;SDS011;52812;48.960;9.108;2022-09-21T14:15:07;1.93;;;1.30;;
3085;SDS011;52812;48.960;9.108;2022-09-21T14:17:37;2.20;;;1.57;;
3085;SDS011;52812;48.960;9.108;2022-09-21T14:20:05;1.40;;;1.30;;
3085;SDS011;52812;48.960;9.108;2022-09-21T14:25:54;1.50;;;1.30;;
3085;SDS011;52812;48.960;9.108;2022-09-21T14:28:27;2.17;;;1.50;;
3085;SDS011;52812;48.960;9.108;2022-09-21T14:31:07;1.43;;;1.20;;
3085;SDS011;52812;48.960;9.108;2022-09-21T14:33:43;1.60;;;1.30;;
3085;SDS011;52812;48.960;9.108;2022-09-21T14:36:13;1.60;;;1.27;;
3085;SDS011;52812;48.960;9.108;2022-09-21T14:38:48;3.03;;;1.70;;
3085;SDS011;52812;48.960;9.108;2022-09-21T14:41:20;2.83;;;1.47;;
3085;SDS011;52812;48.960;9.108;2022-09-21T14:43:51;1.50;;;1.37;;
3085;SDS011;52812;48.960;9.108;2022-09-21T14:49:54;1.50;;;1.40;;
3085;SDS011;52812;48.960;9.108;2022-09-21T14:55:34;1.60;;;1.30;;
3085;SDS011;52812;48.960;9.108;2022-09-21T15:01:13;4.57;;;1.60;;
3085;SDS011;52812;48.960;9.108;2022-09-21T15:04:07;2.70;;;1.60;;
3085;SDS011;52812;48.960;9.108;2022-09-21T15:18:13;1.63;;;1.53;;
3085;SDS011;52812;48.960;9.108;2022-09-21T15:20:54;2.00;;;1.60;;
3085;SDS011;52812;48.960;9.108;2022-09-21T15:23:28;1.50;;;1.40;;
3085;SDS011;52812;48.960;9.108;2022-09-21T15:26:12;3.00;;;1.40;;
3085;SDS011;52812;48.960;9.108;2022-09-21T15:29:01;1.63;;;1.47;;
3085;SDS011;52812;48.960;9.108;2022-09-21T15:31:35;1.83;;;1.70;;
3085;SDS011;52812;48.960;9.108;2022-09-21T15:34:06;1.60;;;1.47;;
3085;SDS011;52812;48.960;9.108;2022-09-21T15:36:37;1.50;;;1.30;;
3085;SDS011;52812;48.960;9.108;2022-09-21T15:39:06;1.80;;;1.50;;
3085;SDS011;52812;48.960;9.108;2022-09-21T15:41:46;1.70;;;1.60;;
3085;SDS011;52812;48.960;9.108;2022-09-21T15:46:51;1.70;;;1.50;;
3085;SDS011;52812;48.960;9.108;2022-09-21T15:49:24;2.33;;;1.50;;
3085;SDS011;52812;48.960;9.108;2022-09-21T15:51:56;2.30;;;1.50;;
3085;SDS011;52812;48.960;9.108;2022-09-21T15:54:30;1.47;;;1.37;;
3085;SDS011;52812;48.960;9.108;2022-09-21T15:57:02;2.03;;;1.60;;
3085;SDS011;52812;48.960;9.108;2022-09-21T15:59:47;2.47;;;1.60;;
3085;SDS011;52812;48.960;9.108;2022-09-21T16:02:16;2.10;;;1.50;;
3085;SDS011;52812;48.960;9.108;2022-09-21T16:04:46;2.47;;;1.70;;
3085;SDS011;52812;48.960;9.108;2022-09-21T16:09:58;1.60;;;1.50;;
3085;SDS011;52812;48.960;9.108;2022-09-21T16:14:58;2.07;;;1.30;;
3085;SDS011;52812;48.960;9.108;2022-09-21T16:17:51;2.13;;;1.37;;
3085;SDS011;52812;48.960;9.108;2022-09-21T16:20:35;1.53;;;1.43;;
3085;SDS011;52812;48.960;9.108;2022-09-21T16:23:04;2.00;;;1.70;;
3085;SDS011;52812;48.960;9.108;2022-09-21T16:25:35;2.67;;;1.70;;
3085;SDS011;52812;48.960;9.108;2022-09-21T16:28:08;1.60;;;1.50;;
3085;SDS011;52812;48.960;9.108;2022-09-21T16:31:23;1.60;;;1.50;;
3085;SDS011;52812;48.960;9.108;2022-09-21T16:38:46;2.00;;;1.50;;
3085;SDS011;52812;48.960;9.108;2022-09-21T16:41:14;1.83;;;1.60;;
3085;SDS011;52812;48.960;9.108;2022-09-21T16:43:40;1.70;;;1.60;;
3085;SDS011;52812;48.960;9.108;2022-09-21T16:46:11;3.73;;;1.47;;
3085;SDS011;52812;48.960;9.108;2022-09-21T16:48:37;1.80;;;1.70;;
3085;SDS011;52812;48.960;9.108;2022-09-21T16:51:07;1.93;;;1.40;;
3085;SDS011;52812;48.960;9.108;2022-09-21T16:53:38;1.80;;;1.43;;
3085;SDS011;52812;48.960;9.108;2022-09-21T16:56:04;2.40;;;1.50;;
3085;SDS011;52812;48.960;9.108;2022-09-21T16:58:38;2.37;;;1.50;;
3085;SDS011;52812;48.960;9.108;2022-09-21T17:01:06;1.60;;;1.50;;
3085;SDS011;52812;48.960;9.108;2022-09-21T17:03:33;2.03;;;1.60;;
3085;SDS011;52812;48.960;9.108;2022-09-21T17:05:59;1.80;;;1.70;;
3085;SDS011;52812;48.960;9.108;2022-09-21T17:08:24;2.30;;;1.80;;
3085;SDS011;52812;48.960;9.108;2022-09-21T17:10:54;2.60;;;1.70;;
3085;SDS011;52812;48.960;9.108;2022-09-21T17:13:19;1.50;;;1.40;;
3085;SDS011;52812;48.960;9.108;2022-09-21T17:15:45;1.73;;;1.60;;
3085;SDS011;52812;48.960;9.108;2022-09-21T17:18:12;3.43;;;1.90;;
3085;SDS011;52812;48.960;9.108;2022-09-21T17:20:38;1.90;;;1.80;;
3085;SDS011;52812;48.960;9.108;2022-09-21T17:23:06;3.07;;;1.90;;
3085;SDS011;52812;48.960;9.108;2022-09-21T17:25:32;1.83;;;1.70;;
3085;SDS011;52812;48.960;9.108;2022-09-21T17:28:00;3.10;;;1.53;;
3085;SDS011;52812;48.960;9.108;2022-09-21T17:30:26;2.23;;;1.53;;
3085;SDS011;52812;48.960;9.108;2022-09-21T17:32:52;1.77;;;1.67;;
3085;SDS011;52812;48.960;9.108;2022-09-21T17:37:44;4.20;;;3.30;;
3085;SDS011;52812;48.960;9.108;2022-09-21T17:40:10;3.23;;;2.90;;
3085;SDS011;52812;48.960;9.108;2022-09-21T17:42:40;3.40;;;2.00;;
3085;SDS011;52812;48.960;9.108;2022-09-21T17:45:14;1.80;;;1.70;;
3085;SDS011;52812;48.960;9.108;2022-09-21T17:47:45;2.13;;;1.67;;
3085;SDS011;52812;48.960;9.108;2022-09-21T17:52:36;2.10;;;1.90;;
3085;SDS011;52812;48.960;9.108;2022-09-21T17:55:21;3.10;;;2.80;;
3085;SDS011;52812;48.960;9.108;2022-09-21T18:03:21;4.83;;;2.57;;
3085;SDS011;52812;48.960;9.108;2022-09-21T18:05:50;4.33;;;3.30;;
3085;SDS011;52812;48.960;9.108;2022-09-21T18:08:21;3.17;;;2.20;;
3085;SDS011;52812;48.960;9.108;2022-09-21T18:22:08;3.00;;;2.70;;
3085;SDS011;52812;48.960;9.108;2022-09-21T18:24:42;6.60;;;3.10;;
3085;SDS011;52812;48.960;9.108;2022-09-21T18:27:09;4.93;;;3.60;;
3085;SDS011;52812;48.960;9.108;2022-09-21T18:29:36;4.20;;;3.00;;
3085;SDS011;52812;48.960;9.108;2022-09-21T18:37:36;6.90;;;4.03;;
3085;SDS011;52812;48.960;9.108;2022-09-21T18:40:27;6.93;;;4.57;;
3085;SDS011;52812;48.960;9.108;2022-09-21T18:43:01;5.13;;;4.00;;
3085;SDS011;52812;48.960;9.108;2022-09-21T18:45:42;6.20;;;4.40;;
3085;SDS011;52812;48.960;9.108;2022-09-21T18:53:49;7.40;;;4.20;;
3085;SDS011;52812;48.960;9.108;2022-09-21T18:56:20;5.10;;;4.20;;
3085;SDS011;52812;48.960;9.108;2022-09-21T18:58:51;4.80;;;4.30;;